Time;durP1;ratioP1;P1;durP2;ratioP2;P2;SDS_P1;SDS_P2;PMS_P1;PMS_P2;Temp;Humidity;BMP_temperature;BMP_pressure;BME280_temperature;BME280_humidity;BME280_pressure;Samples;Min_cycle;Max_cycle;Signal;HPM_P1;HPM_P2
2021/05/05 00:00:57;;;;;;;8.57;2.97;;;15.50;49.50;;;;;;5057339;28;20045;-62
2021/05/05 00:03:23;;;;;;;4.65;2.50;;;15.60;49.50;;;;;;5054764;28;20495;-62
2021/05/05 00:05:48;;;;;;;2.85;2.53;;;15.50;49.50;;;;;;5056086;28;20052;-61
2021/05/05 00:08:14;;;;;;;5.40;2.78;;;15.50;49.70;;;;;;5054550;28;20090;-62
2021/05/05 00:10:40;;;;;;;3.90;2.92;;;15.60;49.60;;;;;;5046692;28;20039;-60
2021/05/05 00:13:05;;;;;;;4.90;2.78;;;15.60;49.90;;;;;;5047188;28;22738;-60
2021/05/05 00:15:31;;;;;;;4.63;2.72;;;15.60;49.90;;;;;;5059676;28;20040;-60
2021/05/05 00:17:56;;;;;;;3.40;2.72;;;15.60;50.00;;;;;;5039350;28;20025;-60
2021/05/05 00:20:23;;;;;;;3.35;2.65;;;15.60;50.20;;;;;;5048529;28;20135;-61
2021/05/05 00:22:50;;;;;;;5.25;2.67;;;15.40;50.70;;;;;;5068829;28;20551;-61
2021/05/05 00:25:16;;;;;;;5.25;3.40;;;15.50;51.00;;;;;;5043962;28;20036;-61
2021/05/05 00:27:41;;;;;;;5.03;2.78;;;15.60;51.30;;;;;;5051290;28;20045;-61
2021/05/05 00:30:10;;;;;;;6.10;3.00;;;15.30;51.20;;;;;;5051689;28;20045;-60
2021/05/05 00:32:35;;;;;;;8.23;3.28;;;15.40;51.10;;;;;;5048775;28;20029;-60
2021/05/05 00:35:02;;;;;;;6.40;2.67;;;15.50;51.00;;;;;;5048373;28;20041;-60
2021/05/05 00:37:28;;;;;;;6.88;3.05;;;15.40;50.90;;;;;;5052449;28;20033;-61
2021/05/05 00:39:55;;;;;;;5.38;3.08;;;15.50;51.10;;;;;;5045224;28;20509;-61
2021/05/05 00:42:21;;;;;;;5.03;3.17;;;15.40;51.10;;;;;;5053217;28;20059;-60
2021/05/05 00:44:47;;;;;;;5.38;3.15;;;15.40;51.30;;;;;;5051323;28;20120;-60
2021/05/05 00:47:13;;;;;;;5.28;3.50;;;15.40;51.50;;;;;;5046557;28;20120;-59
2021/05/05 00:49:39;;;;;;;5.38;3.53;;;15.50;51.80;;;;;;5056226;28;20039;-60
2021/05/05 00:52:05;;;;;;;4.32;2.55;;;15.40;51.30;;;;;;5048190;28;20028;-60
2021/05/05 00:54:31;;;;;;;5.57;3.20;;;15.40;51.70;;;;;;5061015;28;20039;-60
2021/05/05 00:56:56;;;;;;;7.75;3.13;;;15.40;51.60;;;;;;5051265;28;20058;-60
2021/05/05 00:59:24;;;;;;;4.97;3.72;;;15.40;51.80;;;;;;5046969;28;20516;-61
2021/05/05 01:01:50;;;;;;;3.25;2.92;;;15.40;51.80;;;;;;5055343;28;20032;-61
2021/05/05 01:04:16;;;;;;;3.60;2.92;;;15.40;51.80;;;;;;5056910;28;20431;-61
2021/05/05 01:06:42;;;;;;;4.78;3.10;;;15.30;51.90;;;;;;5046090;28;20087;-60
2021/05/05 01:09:08;;;;;;;5.68;3.42;;;15.40;52.10;;;;;;5052042;28;20033;-61
2021/05/05 01:11:33;;;;;;;4.78;3.20;;;15.20;52.50;;;;;;5029149;28;20431;-61
2021/05/05 01:13:59;;;;;;;3.78;3.08;;;15.30;52.20;;;;;;5043486;28;20372;-61
2021/05/05 01:16:25;;;;;;;3.65;2.92;;;15.30;52.30;;;;;;5043848;28;20029;-60
2021/05/05 01:18:51;;;;;;;4.35;2.88;;;15.40;52.80;;;;;;5052824;28;20041;-61
2021/05/05 01:21:18;;;;;;;7.93;3.50;;;15.40;52.60;;;;;;5046423;28;22148;-60
2021/05/05 01:23:44;;;;;;;7.55;3.03;;;15.30;52.60;;;;;;5054532;28;20479;-60
2021/05/05 01:26:10;;;;;;;3.20;2.83;;;15.40;52.60;;;;;;5049325;28;20033;-61
2021/05/05 01:28:41;;;;;;;8.82;2.78;;;15.10;53.00;;;;;;5053138;28;20072;-60
2021/05/05 01:31:10;;;;;;;3.35;3.05;;;15.20;53.10;;;;;;5064074;28;20051;-61
2021/05/05 01:33:37;;;;;;;4.35;3.40;;;15.30;53.30;;;;;;5065624;28;20174;-61
2021/05/05 01:36:04;;;;;;;4.55;2.70;;;15.20;53.30;;;;;;5062666;28;20033;-61
2021/05/05 01:38:29;;;;;;;4.93;3.38;;;15.10;53.50;;;;;;5041542;28;20041;-61
2021/05/05 01:40:55;;;;;;;4.15;2.90;;;15.00;54.10;;;;;;5054616;28;20040;-60
2021/05/05 01:43:21;;;;;;;3.70;3.22;;;15.00;54.20;;;;;;5050100;28;20040;-60
2021/05/05 01:45:46;;;;;;;5.97;3.22;;;15.10;54.00;;;;;;5064266;28;20047;-60
2021/05/05 01:48:12;;;;;;;6.47;3.45;;;15.20;54.00;;;;;;5047648;28;20032;-60
2021/05/05 01:50:39;;;;;;;5.13;3.53;;;15.10;53.90;;;;;;5047478;28;20037;-61
2021/05/05 01:53:05;;;;;;;5.18;3.45;;;15.20;54.30;;;;;;5046281;28;20437;-61
2021/05/05 01:55:31;;;;;;;6.22;3.13;;;15.00;54.50;;;;;;5029021;28;20045;-61
2021/05/05 01:57:57;;;;;;;4.43;3.38;;;15.00;54.50;;;;;;5050825;28;20025;-61
2021/05/05 02:00:25;;;;;;;6.05;3.63;;;15.00;54.70;;;;;;5063687;28;20098;-61
2021/05/05 02:02:51;;;;;;;4.00;3.00;;;15.00;55.00;;;;;;5045246;28;20561;-61
2021/05/05 02:05:17;;;;;;;4.15;3.30;;;15.00;55.20;;;;;;5042145;28;20036;-61
2021/05/05 02:07:43;;;;;;;5.82;3.22;;;15.10;55.00;;;;;;5062401;28;20029;-61
2021/05/05 02:10:11;;;;;;;4.53;3.45;;;15.00;55.00;;;;;;5061147;28;20038;-61
2021/05/05 02:12:37;;;;;;;5.00;3.60;;;15.10;55.00;;;;;;5050820;28;20086;-61
2021/05/05 02:15:05;;;;;;;4.38;3.47;;;15.00;55.10;;;;;;5052148;28;20037;-61
2021/05/05 02:17:31;;;;;;;5.78;3.20;;;15.10;55.10;;;;;;5049433;28;20813;-61
2021/05/05 02:19:56;;;;;;;7.50;3.97;;;15.10;55.00;;;;;;5047819;28;20033;-61
2021/05/05 02:22:22;;;;;;;4.53;3.17;;;15.20;55.00;;;;;;5046919;28;20049;-61
2021/05/05 02:24:48;;;;;;;3.63;3.33;;;15.10;55.30;;;;;;5045897;28;20029;-60
2021/05/05 02:27:14;;;;;;;4.68;3.40;;;15.20;55.10;;;;;;5049667;28;20101;-61
2021/05/05 02:29:40;;;;;;;5.88;4.07;;;15.10;55.10;;;;;;5040823;28;20045;-60
2021/05/05 02:32:12;;;;;;;4.97;3.80;;;15.10;55.00;;;;;;5054732;28;20040;-61
2021/05/05 02:34:38;;;;;;;5.75;3.75;;;15.10;55.30;;;;;;5058123;28;20439;-61
2021/05/05 02:37:09;;;;;;;4.10;3.70;;;15.10;55.30;;;;;;5058761;28;20491;-61
2021/05/05 02:39:37;;;;;;;5.95;3.75;;;15.10;55.60;;;;;;5060239;28;20039;-62
2021/05/05 02:42:03;;;;;;;5.80;3.45;;;15.10;55.70;;;;;;5048370;28;20505;-61
2021/05/05 02:44:29;;;;;;;6.25;3.75;;;15.00;55.70;;;;;;5062020;28;20128;-61
2021/05/05 02:46:54;;;;;;;5.50;3.78;;;15.10;56.00;;;;;;5066001;28;20531;-61
2021/05/05 02:49:20;;;;;;;6.20;3.47;;;15.00;56.20;;;;;;5054329;28;20407;-61
2021/05/05 02:51:46;;;;;;;3.92;3.22;;;15.10;56.10;;;;;;5044244;28;20037;-61
2021/05/05 02:54:12;;;;;;;4.40;2.85;;;15.10;55.90;;;;;;5041839;28;20162;-60
2021/05/05 02:56:37;;;;;;;4.68;3.45;;;15.10;56.00;;;;;;5055135;28;20040;-61
2021/05/05 02:59:03;;;;;;;4.10;3.05;;;15.10;56.00;;;;;;5048611;28;20037;-61
2021/05/05 03:01:29;;;;;;;5.07;3.50;;;15.10;56.10;;;;;;5043002;28;20049;-61
2021/05/05 03:03:55;;;;;;;5.88;3.80;;;15.10;56.30;;;;;;5047285;28;20060;-61
2021/05/05 03:06:20;;;;;;;4.32;3.47;;;15.10;56.50;;;;;;5048125;28;20033;-61
2021/05/05 03:08:46;;;;;;;5.55;2.97;;;15.20;56.10;;;;;;5042043;28;20039;-61
2021/05/05 03:11:13;;;;;;;4.03;3.30;;;15.20;56.00;;;;;;5045939;28;20037;-61
2021/05/05 03:13:38;;;;;;;5.95;3.92;;;15.30;55.70;;;;;;5046882;28;20033;-61
2021/05/05 03:16:04;;;;;;;6.90;3.55;;;15.30;55.90;;;;;;5053524;28;20034;-61
2021/05/05 03:18:30;;;;;;;5.20;3.47;;;15.30;56.00;;;;;;5057790;28;20094;-61
2021/05/05 03:20:58;;;;;;;4.57;3.88;;;15.20;56.10;;;;;;5054880;28;20033;-61
2021/05/05 03:23:25;;;;;;;9.77;3.95;;;15.20;56.20;;;;;;5041738;28;20037;-61
2021/05/05 03:25:51;;;;;;;6.18;4.22;;;15.20;56.40;;;;;;5049239;28;20043;-62
2021/05/05 03:28:16;;;;;;;5.55;4.32;;;15.20;56.80;;;;;;5053503;28;20040;-61
2021/05/05 03:30:42;;;;;;;8.55;3.80;;;15.20;56.70;;;;;;5062569;28;20036;-61
2021/05/05 03:33:08;;;;;;;7.93;4.55;;;15.20;56.60;;;;;;5065537;28;20032;-62
2021/05/05 03:35:33;;;;;;;6.60;4.38;;;15.20;56.90;;;;;;5049535;28;20521;-61
2021/05/05 03:38:00;;;;;;;9.80;4.68;;;15.20;56.80;;;;;;5051167;28;20521;-62
2021/05/05 03:40:26;;;;;;;5.07;3.85;;;15.20;57.00;;;;;;5050244;28;20037;-61
2021/05/05 03:42:51;;;;;;;6.68;4.05;;;15.30;57.10;;;;;;5045324;28;20483;-61
2021/05/05 03:45:17;;;;;;;4.72;4.25;;;15.30;56.90;;;;;;5064225;28;20071;-61
2021/05/05 03:47:43;;;;;;;6.60;4.78;;;15.30;56.90;;;;;;5054138;28;20467;-61
2021/05/05 03:50:09;;;;;;;5.28;3.88;;;15.30;56.90;;;;;;5064586;28;20116;-61
2021/05/05 03:52:35;;;;;;;5.68;3.88;;;15.30;56.70;;;;;;5041912;28;20367;-61
2021/05/05 03:55:01;;;;;;;8.95;4.40;;;15.30;57.20;;;;;;5065855;28;20110;-60
2021/05/05 03:57:27;;;;;;;5.57;3.95;;;15.30;57.00;;;;;;5043428;28;20453;-62
2021/05/05 03:59:53;;;;;;;7.18;3.70;;;15.30;56.90;;;;;;5054967;28;20131;-61
2021/05/05 04:02:18;;;;;;;4.53;3.72;;;15.40;57.20;;;;;;5056916;28;20124;-61
2021/05/05 04:04:44;;;;;;;6.80;3.92;;;15.30;57.20;;;;;;5047449;28;20049;-61
2021/05/05 04:07:09;;;;;;;4.47;3.55;;;15.40;56.90;;;;;;5048191;28;20040;-61
2021/05/05 04:09:35;;;;;;;6.25;3.58;;;15.30;56.90;;;;;;5048483;28;20486;-61
2021/05/05 04:12:02;;;;;;;5.28;3.70;;;15.30;57.00;;;;;;5053237;28;20494;-61
2021/05/05 04:14:28;;;;;;;6.63;3.95;;;15.40;57.20;;;;;;5049116;28;20036;-61
2021/05/05 04:16:54;;;;;;;4.63;3.72;;;15.40;57.10;;;;;;5051798;28;20543;-60
2021/05/05 04:19:19;;;;;;;7.35;4.13;;;15.40;57.10;;;;;;5044963;28;20439;-60
2021/05/05 04:21:45;;;;;;;8.07;3.95;;;15.30;57.40;;;;;;5056546;28;20052;-61
2021/05/05 04:24:12;;;;;;;5.05;3.65;;;15.30;57.30;;;;;;5035187;28;20040;-61
2021/05/05 04:26:38;;;;;;;4.10;3.70;;;15.30;57.40;;;;;;5045856;28;20487;-60
2021/05/05 04:29:03;;;;;;;6.65;4.00;;;15.40;57.30;;;;;;5055183;28;20047;-61
2021/05/05 04:31:31;;;;;;;6.65;3.40;;;15.40;57.20;;;;;;5049578;28;20048;-61
2021/05/05 04:33:56;;;;;;;8.02;3.88;;;15.40;57.20;;;;;;5058767;28;20086;-61
2021/05/05 04:36:22;;;;;;;6.65;3.47;;;15.40;57.10;;;;;;5063908;28;20045;-60
2021/05/05 04:38:48;;;;;;;7.90;3.97;;;15.40;57.50;;;;;;5047644;28;20033;-61
2021/05/05 04:41:14;;;;;;;6.85;3.75;;;15.40;57.30;;;;;;5067212;28;20056;-60
2021/05/05 04:43:39;;;;;;;6.80;3.83;;;15.40;57.20;;;;;;5050641;28;23805;-60
2021/05/05 04:46:05;;;;;;;8.52;3.72;;;15.40;57.20;;;;;;5051309;28;20040;-61
2021/05/05 04:48:31;;;;;;;4.40;3.60;;;15.40;57.10;;;;;;5035807;28;20068;-61
2021/05/05 04:50:56;;;;;;;6.38;4.20;;;15.40;57.20;;;;;;5046860;28;20251;-60
2021/05/05 04:53:25;;;;;;;6.68;3.63;;;15.50;57.00;;;;;;5059090;28;20056;-61
2021/05/05 04:55:52;;;;;;;7.95;3.80;;;15.40;56.80;;;;;;5029455;28;20045;-61
2021/05/05 04:58:18;;;;;;;7.70;3.65;;;15.50;57.00;;;;;;5049232;28;20450;-61
2021/05/05 05:00:44;;;;;;;5.82;3.75;;;15.40;57.00;;;;;;5064797;28;20104;-60
2021/05/05 05:03:10;;;;;;;4.47;3.70;;;15.40;57.10;;;;;;5068125;28;20053;-62
2021/05/05 05:05:35;;;;;;;6.75;3.58;;;15.50;57.20;;;;;;5062954;28;20036;-62
2021/05/05 05:08:01;;;;;;;8.65;3.90;;;15.50;57.10;;;;;;5067646;28;20564;-61
2021/05/05 05:10:27;;;;;;;6.70;4.10;;;15.60;57.00;;;;;;5064291;28;20055;-61
2021/05/05 05:12:55;;;;;;;5.68;3.17;;;15.60;56.90;;;;;;5067866;28;20367;-61
2021/05/05 05:15:21;;;;;;;5.72;3.78;;;15.60;56.80;;;;;;5045234;28;20462;-62
2021/05/05 05:17:46;;;;;;;4.80;3.75;;;15.60;56.70;;;;;;5069056;28;20037;-62
2021/05/05 05:20:12;;;;;;;5.13;3.60;;;15.70;56.80;;;;;;5062579;28;20047;-61
2021/05/05 05:22:38;;;;;;;5.00;3.67;;;15.70;56.70;;;;;;5049812;28;20126;-62
2021/05/05 05:25:10;;;;;;;4.57;3.00;;;15.80;56.70;;;;;;5062652;28;20086;-62
2021/05/05 05:27:36;;;;;;;10.13;3.67;;;15.80;56.50;;;;;;5067439;28;20126;-62
2021/05/05 05:30:04;;;;;;;4.35;2.95;;;15.90;56.50;;;;;;5056319;28;20099;-62
2021/05/05 05:32:30;;;;;;;7.57;3.47;;;15.80;56.50;;;;;;5046471;28;20037;-61
2021/05/05 05:34:55;;;;;;;6.30;3.50;;;15.80;56.70;;;;;;5052958;28;20506;-61
2021/05/05 05:37:21;;;;;;;4.63;3.40;;;15.80;56.80;;;;;;5061194;28;20074;-61
2021/05/05 05:39:46;;;;;;;5.53;3.20;;;15.70;56.90;;;;;;5066807;28;20455;-62
2021/05/05 05:42:12;;;;;;;5.50;3.08;;;15.70;56.80;;;;;;5063350;28;20127;-61
2021/05/05 05:44:38;;;;;;;3.78;3.13;;;15.70;57.10;;;;;;5066182;28;20033;-61
2021/05/05 05:47:04;;;;;;;5.57;3.28;;;15.70;57.00;;;;;;5026353;28;20136;-61
2021/05/05 05:49:29;;;;;;;5.53;3.13;;;15.70;57.30;;;;;;5052689;28;20128;-62
2021/05/05 05:51:55;;;;;;;4.55;3.60;;;15.70;57.00;;;;;;5048217;28;20052;-61
2021/05/05 05:54:21;;;;;;;9.40;3.17;;;15.80;57.10;;;;;;5045408;28;20029;-61
2021/05/05 05:56:47;;;;;;;6.72;3.53;;;15.80;57.10;;;;;;5027390;28;20036;-62
2021/05/05 05:59:12;;;;;;;7.50;3.42;;;15.90;56.90;;;;;;5063604;28;20485;-62
2021/05/05 06:01:38;;;;;;;11.85;3.78;;;15.90;56.70;;;;;;5058793;28;20044;-62
2021/05/05 06:04:04;;;;;;;5.53;3.10;;;16.00;56.70;;;;;;5063539;28;20040;-62
2021/05/05 06:06:30;;;;;;;11.45;5.80;;;16.10;56.40;;;;;;5049815;28;20406;-61
2021/05/05 06:08:55;;;;;;;9.30;4.30;;;16.10;56.40;;;;;;5052291;28;20041;-61
2021/05/05 06:11:21;;;;;;;7.32;3.33;;;16.10;56.30;;;;;;5048916;28;20048;-60
2021/05/05 06:13:47;;;;;;;8.80;3.35;;;16.20;56.30;;;;;;5053807;28;20033;-60
2021/05/05 06:16:13;;;;;;;6.35;3.47;;;16.30;56.20;;;;;;5047302;28;20035;-61
2021/05/05 06:18:38;;;;;;;6.22;3.53;;;16.30;56.00;;;;;;5048507;28;20090;-60
2021/05/05 06:21:04;;;;;;;4.90;3.45;;;16.20;55.70;;;;;;5056038;28;20041;-59
2021/05/05 06:23:30;;;;;;;6.60;3.10;;;16.30;55.60;;;;;;5052602;28;20048;-60
2021/05/05 06:25:56;;;;;;;6.82;3.53;;;16.30;55.60;;;;;;5059788;28;20036;-61
2021/05/05 06:28:23;;;;;;;7.30;3.05;;;16.30;55.50;;;;;;5044046;28;20128;-60
2021/05/05 06:30:48;;;;;;;4.93;3.83;;;16.40;55.50;;;;;;5048031;28;20486;-60
2021/05/05 06:33:14;;;;;;;4.93;2.88;;;16.40;55.60;;;;;;5054126;28;20128;-60
2021/05/05 06:35:40;;;;;;;5.22;2.63;;;16.30;55.30;;;;;;5040606;28;20044;-60
2021/05/05 06:38:06;;;;;;;5.13;3.20;;;16.30;55.50;;;;;;5042496;28;20052;-61
2021/05/05 06:40:31;;;;;;;6.03;3.17;;;16.50;55.30;;;;;;5055187;28;20449;-60
2021/05/05 06:42:57;;;;;;;4.78;3.40;;;16.60;55.00;;;;;;5042858;28;20053;-60
2021/05/05 06:45:23;;;;;;;6.05;3.53;;;16.60;54.70;;;;;;5039849;28;20498;-59
2021/05/05 06:47:49;;;;;;;3.83;2.90;;;16.60;54.90;;;;;;5050767;28;20037;-59
2021/05/05 06:50:15;;;;;;;7.07;3.33;;;16.70;54.80;;;;;;5061748;28;20155;-59
2021/05/05 06:52:41;;;;;;;5.63;3.28;;;16.70;55.40;;;;;;5044740;28;20044;-59
2021/05/05 06:55:09;;;;;;;6.38;3.63;;;16.70;54.30;;;;;;5041739;28;20096;-59
2021/05/05 06:57:36;;;;;;;5.88;3.35;;;16.80;54.40;;;;;;5059076;28;20044;-59
2021/05/05 07:00:04;;;;;;;6.93;3.50;;;16.90;54.30;;;;;;5066367;28;20040;-59
2021/05/05 07:02:29;;;;;;;5.10;3.22;;;16.70;54.00;;;;;;5068650;28;20508;-59
2021/05/05 07:04:55;;;;;;;8.85;4.30;;;16.70;54.30;;;;;;5047722;28;20159;-59
2021/05/05 07:07:20;;;;;;;5.55;3.40;;;16.80;54.30;;;;;;5067195;28;20032;-59
2021/05/05 07:09:48;;;;;;;5.13;3.55;;;16.80;54.20;;;;;;5063593;28;20355;-59
2021/05/05 07:12:14;;;;;;;7.35;3.50;;;16.70;54.20;;;;;;5050611;28;20050;-59
2021/05/05 07:14:39;;;;;;;10.48;3.60;;;16.70;54.40;;;;;;5055267;28;20024;-60
2021/05/05 07:17:05;;;;;;;6.85;3.47;;;16.60;54.60;;;;;;5053658;28;20059;-60
2021/05/05 07:19:31;;;;;;;5.82;3.85;;;16.70;54.80;;;;;;5033009;28;20402;-60
2021/05/05 07:21:56;;;;;;;6.97;4.05;;;16.70;54.60;;;;;;5047977;28;20040;-60
2021/05/05 07:24:22;;;;;;;7.65;4.10;;;16.60;54.70;;;;;;5052180;28;20049;-59
2021/05/05 07:26:48;;;;;;;9.07;3.65;;;16.70;54.90;;;;;;5045955;28;20499;-60
2021/05/05 07:29:13;;;;;;;4.50;3.42;;;16.70;54.90;;;;;;5069182;28;20036;-60
2021/05/05 07:31:39;;;;;;;8.00;4.57;;;16.70;55.20;;;;;;5045951;28;20077;-60
2021/05/05 07:34:08;;;;;;;5.78;3.35;;;16.70;54.70;;;;;;5059253;28;20041;-61
2021/05/05 07:36:34;;;;;;;6.70;4.13;;;16.70;54.90;;;;;;5051108;28;20045;-60
2021/05/05 07:47:22;;;;;;;6.78;3.80;;;16.90;55.50;;;;;;5049130;28;20402;-59
2021/05/05 07:49:49;;;;;;;9.07;3.75;;;16.70;54.90;;;;;;5056865;28;20466;-59
2021/05/05 07:52:16;;;;;;;8.40;3.45;;;16.70;55.10;;;;;;5055252;28;20040;-59
2021/05/05 07:54:43;;;;;;;6.15;3.55;;;16.70;55.10;;;;;;5064219;28;20044;-60
2021/05/05 07:57:09;;;;;;;12.77;4.00;;;16.60;55.10;;;;;;5046155;28;20037;-59
2021/05/05 07:59:37;;;;;;;7.85;4.53;;;16.70;55.10;;;;;;5055887;28;20048;-60
2021/05/05 08:02:04;;;;;;;6.47;4.00;;;16.70;55.10;;;;;;5062836;28;20056;-60
2021/05/05 08:04:30;;;;;;;7.70;4.45;;;16.60;55.30;;;;;;5066675;28;20111;-60
2021/05/05 08:06:57;;;;;;;11.52;4.28;;;16.60;55.30;;;;;;5054499;28;20045;-60
2021/05/05 08:09:24;;;;;;;7.00;4.20;;;16.70;55.40;;;;;;5050026;28;20048;-60
2021/05/05 08:11:50;;;;;;;32.45;27.08;;;16.70;55.30;;;;;;5050183;28;20131;-60
2021/05/05 08:14:17;;;;;;;182.70;133.32;;;16.50;55.30;;;;;;5051069;28;20043;-60
2021/05/05 08:16:43;;;;;;;12.73;8.43;;;16.50;55.90;;;;;;5056396;28;20048;-60
2021/05/05 08:19:09;;;;;;;12.40;5.95;;;16.60;55.80;;;;;;5058595;28;20029;-60
2021/05/05 08:21:34;;;;;;;146.80;87.30;;;16.70;55.50;;;;;;5059765;28;20041;-60
2021/05/05 08:24:00;;;;;;;55.15;34.13;;;16.80;55.40;;;;;;5042419;28;20470;-60
2021/05/05 08:26:29;;;;;;;47.28;42.35;;;16.90;55.30;;;;;;5053075;28;20044;-60
2021/05/05 08:28:54;;;;;;;11.52;7.63;;;16.80;55.20;;;;;;5054030;28;20386;-60
2021/05/05 08:31:20;;;;;;;7.65;4.55;;;16.90;55.20;;;;;;5043583;28;20116;-60
2021/05/05 08:33:46;;;;;;;6.28;4.45;;;17.00;55.00;;;;;;5048894;28;20120;-60
2021/05/05 08:36:11;;;;;;;6.10;4.22;;;17.00;55.00;;;;;;5052986;28;20025;-60
2021/05/05 08:38:37;;;;;;;6.85;3.75;;;17.00;54.60;;;;;;5054129;28;20036;-60
2021/05/05 08:41:04;;;;;;;4.93;3.72;;;17.20;54.80;;;;;;5049935;28;20028;-60
2021/05/05 08:43:32;;;;;;;6.15;3.88;;;17.30;54.20;;;;;;5040205;28;20048;-60
2021/05/05 08:45:59;;;;;;;8.35;4.70;;;17.50;54.30;;;;;;5050727;28;20037;-60
2021/05/05 08:48:25;;;;;;;7.18;4.45;;;17.20;54.30;;;;;;5045634;28;20037;-60
2021/05/05 08:50:52;;;;;;;5.72;4.32;;;17.10;54.40;;;;;;5042620;28;20701;-59
2021/05/05 08:53:17;;;;;;;5.55;5.03;;;17.00;54.80;;;;;;5048727;28;20391;-60
2021/05/05 08:55:43;;;;;;;8.45;7.07;;;17.10;54.80;;;;;;5053006;28;20057;-60
2021/05/05 08:58:09;;;;;;;8.15;4.18;;;17.10;55.10;;;;;;5061287;28;20124;-60
2021/05/05 09:00:36;;;;;;;9.95;4.95;;;17.20;54.60;;;;;;5053511;28;20132;-60
2021/05/05 09:03:05;;;;;;;29.05;25.70;;;17.30;54.70;;;;;;5049966;28;20106;-60
2021/05/05 09:05:51;;;;;;;20.52;13.57;;;17.30;54.50;;;;;;5051389;28;20064;-59
2021/05/05 09:08:18;;;;;;;9.02;5.53;;;17.40;54.60;;;;;;5043505;28;20039;-59
2021/05/05 09:11:03;;;;;;;9.90;4.22;;;17.50;54.30;;;;;;5042162;28;20071;-59
2021/05/05 09:13:47;;;;;;;15.77;9.13;;;17.70;53.90;;;;;;5020874;28;20072;-59
2021/05/05 09:16:15;;;;;;;;;;;17.90;53.60;;;;;;5057979;28;20055;-59
2021/05/05 09:19:01;;;;;;;4.88;3.38;;;18.00;54.00;;;;;;5048994;28;20274;-59
2021/05/05 09:21:52;;;;;;;7.68;3.95;;;17.80;55.00;;;;;;4988576;28;20041;-59
2021/05/05 09:24:30;;;;;;;20.33;14.50;;;18.00;52.80;;;;;;5049716;28;20119;-60
2021/05/05 09:27:06;;;;;;;31.30;21.67;;;18.00;52.50;;;;;;5041348;28;20053;-60
2021/05/05 09:29:44;;;;;;;9.95;4.82;;;18.00;58.20;;;;;;5050036;28;20041;-60
2021/05/05 09:32:11;;;;;;;9.65;4.95;;;18.20;52.60;;;;;;5063595;28;20093;-59
2021/05/05 09:34:38;;;;;;;78.50;60.35;;;18.20;52.40;;;;;;5042637;28;20108;-59
2021/05/05 09:37:09;;;;;;;32.25;22.83;;;18.10;52.30;;;;;;5044627;28;20044;-60
2021/05/05 09:39:38;;;;;;;9.10;4.53;;;18.00;52.30;;;;;;5045788;28;20505;-59
2021/05/05 09:42:18;;;;;;;9.25;4.82;;;18.10;52.10;;;;;;5043523;28;20045;-60
2021/05/05 09:45:02;;;;;;;16.90;8.40;;;18.20;52.20;;;;;;5037964;28;20386;-60
2021/05/05 09:47:46;;;;;;;12.63;6.05;;;18.40;51.40;;;;;;5024768;28;20033;-60
2021/05/05 09:50:38;;;;;;;11.88;6.93;;;18.60;51.60;;;;;;5046978;28;20033;-60
2021/05/05 09:53:23;;;;;;;10.48;4.50;;;18.50;51.50;;;;;;5024307;28;20508;-60
2021/05/05 09:55:51;;;;;;;15.57;8.50;;;18.40;50.70;;;;;;5053995;28;20041;-59
2021/05/05 09:58:30;;;;;;;7.05;3.63;;;18.50;51.20;;;;;;5034217;28;20036;-60
2021/05/05 10:01:05;;;;;;;9.15;5.65;;;18.50;49.80;;;;;;5040042;28;20753;-60
2021/05/05 10:03:45;;;;;;;6.00;3.33;;;18.60;50.90;;;;;;5041322;28;20045;-60
2021/05/05 10:06:28;;;;;;;8.00;3.15;;;18.70;50.10;;;;;;5060905;28;20064;-60
2021/05/05 10:09:09;;;;;;;5.95;3.83;;;18.80;50.00;;;;;;5006846;28;20118;-60
2021/05/05 10:11:45;;;;;;;6.70;3.83;;;18.70;49.80;;;;;;5060212;28;20470;-59
2021/05/05 10:14:17;;;;;;;13.93;8.55;;;19.00;49.80;;;;;;5043482;28;20411;-60
2021/05/05 10:16:45;;;;;;;17.65;10.25;;;19.00;49.60;;;;;;5046329;28;20505;-60
2021/05/05 10:19:21;;;;;;;7.15;3.40;;;19.20;49.20;;;;;;5034787;28;20036;-59
2021/05/05 10:22:02;;;;;;;10.93;3.58;;;19.40;48.70;;;;;;5059980;28;20032;-60
2021/05/05 10:24:31;;;;;;;8.57;5.88;;;19.30;48.30;;;;;;5062672;28;20523;-59
2021/05/05 10:30:22;;;;;;;10.90;6.20;;;19.30;48.00;;;;;;4996753;28;20052;-60
2021/05/05 10:32:48;;;;;;;5.90;3.67;;;19.20;48.30;;;;;;5042230;28;20102;-60
2021/05/05 10:35:16;;;;;;;10.43;4.60;;;19.30;48.40;;;;;;5052261;28;20037;-59
2021/05/05 10:37:47;;;;;;;8.15;4.55;;;19.40;48.60;;;;;;5049596;28;20645;-60
2021/05/05 10:40:22;;;;;;;6.97;3.53;;;19.30;47.40;;;;;;5032445;28;20162;-60
2021/05/05 10:42:54;;;;;;;10.07;5.15;;;19.40;48.10;;;;;;5041757;28;20056;-60
2021/05/05 10:45:32;;;;;;;7.47;4.32;;;19.40;47.20;;;;;;5066439;28;20120;-60
2021/05/05 10:48:07;;;;;;;6.35;3.47;;;19.30;47.40;;;;;;5047378;28;20485;-60
2021/05/05 10:50:55;;;;;;;14.55;13.35;;;19.40;46.60;;;;;;5045001;28;20516;-60
2021/05/05 10:53:23;;;;;;;6.40;3.83;;;19.30;47.10;;;;;;4998607;28;20044;-60
2021/05/05 10:55:56;;;;;;;6.70;4.10;;;19.50;47.90;;;;;;5044123;28;20037;-60
2021/05/05 10:58:25;;;;;;;6.90;3.88;;;19.50;47.80;;;;;;5034345;28;20216;-60
2021/05/05 11:00:59;;;;;;;6.90;3.45;;;19.40;47.50;;;;;;5048094;28;20049;-60
2021/05/05 11:03:44;;;;;;;7.50;3.75;;;19.30;47.40;;;;;;5046229;28;20052;-60
2021/05/05 11:06:29;;;;;;;9.15;4.07;;;19.40;47.20;;;;;;5057720;28;20041;-60
2021/05/05 11:08:55;;;;;;;7.63;4.40;;;19.60;47.40;;;;;;4999702;28;20037;-60
2021/05/05 11:11:43;;;;;;;11.30;5.15;;;19.40;47.10;;;;;;5046092;28;20039;-61
2021/05/05 11:14:09;;;;;;;7.35;3.63;;;19.80;46.20;;;;;;5038057;28;20090;-61
2021/05/05 11:16:57;;;;;;;8.85;3.80;;;20.00;46.60;;;;;;5046796;28;20741;-60
2021/05/05 11:19:35;;;;;;;15.90;13.70;;;20.30;45.90;;;;;;5017471;28;20032;-59
2021/05/05 11:22:05;;;;;;;19.65;15.88;;;21.00;44.50;;;;;;5060494;28;20125;-59
2021/05/05 11:24:41;;;;;;;37.67;27.23;;;23.00;40.00;;;;;;5051092;28;20175;-59
2021/05/05 11:27:11;;;;;;;10.50;5.03;;;25.30;36.70;;;;;;5057733;28;20047;-61
2021/05/05 11:29:42;;;;;;;7.85;4.57;;;27.10;34.00;;;;;;5062791;28;20127;-60
2021/05/05 11:32:13;;;;;;;6.38;4.03;;;27.30;31.80;;;;;;5065667;28;20094;-60
2021/05/05 11:34:41;;;;;;;20.63;13.35;;;26.60;32.40;;;;;;5050084;28;20040;-60
2021/05/05 11:37:12;;;;;;;9.00;4.93;;;26.00;32.90;;;;;;5057161;28;20037;-58
2021/05/05 11:39:41;;;;;;;16.10;8.90;;;25.40;33.80;;;;;;5045278;28;20037;-59
2021/05/05 11:42:13;;;;;;;13.32;8.82;;;24.50;35.50;;;;;;5049208;28;20044;-56
2021/05/05 11:44:44;;;;;;;7.30;5.13;;;23.60;36.90;;;;;;5045291;28;20499;-57
2021/05/05 11:47:13;;;;;;;8.68;4.60;;;23.60;37.70;;;;;;5042161;28;20029;-56
2021/05/05 11:49:45;;;;;;;20.80;15.57;;;22.80;38.50;;;;;;5049394;28;20080;-58
2021/05/05 11:52:26;;;;;;;8.65;5.10;;;22.10;39.60;;;;;;5054654;28;20120;-54
2021/05/05 11:55:11;;;;;;;20.27;15.77;;;21.70;40.60;;;;;;5036283;28;20616;-58
2021/05/05 11:57:43;;;;;;;;;;;22.40;40.40;;;;;;5031092;28;20037;-60
2021/05/05 12:00:14;;;;;;;10.32;6.47;;;22.40;39.00;;;;;;5056552;28;19927;-56
2021/05/05 12:02:52;;;;;;;9.32;5.28;;;22.10;40.40;;;;;;5049682;28;20123;-60
2021/05/05 12:05:31;;;;;;;11.10;7.38;;;22.70;38.50;;;;;;5058433;28;20556;-60
2021/05/05 12:08:08;;;;;;;16.08;7.03;;;22.50;40.50;;;;;;5066660;28;20491;-60
2021/05/05 12:10:37;;;;;;;13.23;7.57;;;22.20;40.30;;;;;;5067711;28;20451;-60
2021/05/05 12:13:04;;;;;;;11.38;6.22;;;22.10;40.10;;;;;;5063905;28;20076;-60
2021/05/05 12:15:30;;;;;;;7.45;4.28;;;21.70;40.50;;;;;;5067864;28;20064;-60
2021/05/05 12:18:04;;;;;;;9.82;4.40;;;22.50;40.20;;;;;;5061146;28;20063;-60
2021/05/05 12:20:30;;;;;;;7.95;4.05;;;22.80;38.30;;;;;;5051982;28;20127;-60
2021/05/05 12:22:58;;;;;;;5.40;4.20;;;22.50;39.60;;;;;;5047209;28;20128;-60
2021/05/05 12:25:32;;;;;;;8.55;4.05;;;22.00;40.00;;;;;;5068399;28;20111;-60
2021/05/05 12:28:02;;;;;;;8.65;3.97;;;21.80;41.30;;;;;;5052439;28;20100;-60
2021/05/05 12:30:55;;;;;;;7.65;4.43;;;21.50;41.80;;;;;;5065383;28;20036;-60
2021/05/05 12:33:31;;;;;;;7.20;4.00;;;21.60;41.40;;;;;;5021416;28;20036;-60
2021/05/05 12:36:02;;;;;;;10.40;4.95;;;22.60;39.80;;;;;;5052265;28;20125;-61
2021/05/05 12:38:34;;;;;;;6.78;4.68;;;21.90;40.70;;;;;;5044419;28;20049;-61
2021/05/05 12:41:03;;;;;;;11.05;4.97;;;21.60;41.70;;;;;;5054231;28;20045;-60
2021/05/05 12:43:29;;;;;;;11.27;4.80;;;21.40;41.90;;;;;;5046794;28;20056;-59
2021/05/05 12:45:57;;;;;;;7.45;4.13;;;21.50;42.10;;;;;;5023054;28;20423;-59
2021/05/05 12:48:45;;;;;;;7.35;4.43;;;21.40;42.40;;;;;;5046857;28;20494;-59
2021/05/05 12:51:14;;;;;;;7.45;3.88;;;21.90;41.60;;;;;;5058343;28;20044;-56
2021/05/05 12:54:00;;;;;;;5.88;4.25;;;21.90;41.80;;;;;;5043760;28;20120;-59
2021/05/05 12:56:55;;;;;;;6.97;4.57;;;21.80;41.70;;;;;;5026870;28;20075;-59
2021/05/05 12:59:30;;;;;;;8.27;4.40;;;21.70;42.80;;;;;;5006020;28;20070;-58
2021/05/05 13:02:02;;;;;;;;;;;21.40;42.30;;;;;;5055297;28;20529;-59
2021/05/05 13:04:39;;;;;;;8.07;4.53;;;21.50;42.50;;;;;;5057521;28;20283;-59